Terminal Aerodrome Forecast
Issued by NWS

Home | Current Version | Previous Version | Text Only | Print | Product List | Glossary Off
Versions: 1 2 3 4 5 6 7 8 9 10 11 12 13 14 15 16 17

784
FTUS41 KCLE 212322
TAFFDY
TAF
KFDY 212322Z 2200/2224 24005KT P6SM FEW060
     FM220700 VRB03KT P6SM VCTS SCT200CB
     FM220900 16004KT P6SM -SHRA BKN045
      TEMPO 2209/2211 4SM TS OVC030CB
     FM221200 22007KT 5SM -SHRA BR VCTS OVC030CB
     FM221900 29011KT P6SM BKN040=

USA.gov is the U.S. government's official web portal to all federal, state and local government web resources and services.